Time;durP1;ratioP1;P1;durP2;ratioP2;P2;SDS_P1;SDS_P2;PMS_P1;PMS_P2;Temp;Humidity;BMP_temperature;BMP_pressure;BME280_temperature;BME280_humidity;BME280_pressure;Samples;Min_cycle;Max_cycle;Signal;HPM_P1;HPM_P2
2021/06/23 00:00:27;;;;;;;1.85;1.20;;;;;;;14.78;100.00;93112.41;2098263;28;20078;-86
2021/06/23 00:01:28;;;;;;;2.13;1.67;;;;;;;14.72;100.00;93122.25;2104019;28;20572;-86
2021/06/23 00:02:29;;;;;;;2.45;1.73;;;;;;;14.77;100.00;93121.66;2106865;28;20024;-83
2021/06/23 00:03:29;;;;;;;2.58;1.85;;;;;;;14.70;100.00;93116.53;2106785;28;20047;-84
2021/06/23 00:04:30;;;;;;;3.08;1.50;;;;;;;14.69;100.00;93123.88;2106608;28;20507;-85
2021/06/23 00:05:31;;;;;;;2.28;1.55;;;;;;;14.70;100.00;93116.53;2106360;28;20105;-82
2021/06/23 00:06:32;;;;;;;2.22;1.60;;;;;;;14.68;100.00;93114.31;2104757;28;20499;-85
2021/06/23 00:07:32;;;;;;;1.75;1.63;;;;;;;14.65;100.00;93112.50;2088316;28;20087;-82
2021/06/23 00:08:33;;;;;;;1.67;1.58;;;;;;;14.67;100.00;93114.75;2106471;28;20059;-82
2021/06/23 00:09:34;;;;;;;3.80;1.60;;;;;;;14.68;100.00;93110.88;2106726;28;20051;-84
2021/06/23 00:10:34;;;;;;;1.90;1.70;;;;;;;14.62;100.00;93108.00;2098500;28;20024;-86
2021/06/23 00:11:45;;;;;;;2.65;1.40;;;;;;;14.66;100.00;93110.53;2098293;28;20481;-85
2021/06/23 00:12:47;;;;;;;1.92;1.70;;;;;;;14.64;100.00;93119.06;2107962;28;20031;-84
2021/06/23 00:13:49;;;;;;;3.33;1.50;;;;;;;14.64;100.00;93112.94;2106690;28;20024;-85
2021/06/23 00:14:50;;;;;;;1.63;1.50;;;;;;;14.57;100.00;93114.72;2098689;28;20440;-83
2021/06/23 00:15:50;;;;;;;4.25;1.80;;;;;;;14.56;100.00;93115.13;2106601;28;20024;-87
2021/06/23 00:16:51;;;;;;;3.33;1.48;;;;;;;14.55;100.00;93119.03;2098088;28;20377;-85
2021/06/23 00:17:52;;;;;;;1.58;1.40;;;;;;;14.57;100.00;93114.72;2098334;28;20024;-85
2021/06/23 00:18:53;;;;;;;1.58;1.48;;;;;;;14.56;100.00;93113.19;2106682;28;20023;-85
2021/06/23 00:19:53;;;;;;;2.90;1.50;;;;;;;14.55;100.00;93111.69;2098802;28;20028;-83
2021/06/23 00:20:54;;;;;;;3.28;1.65;;;;;;;14.57;100.00;93117.41;2115149;28;20023;-86
2021/06/23 00:21:55;;;;;;;3.05;1.67;;;;;;;14.57;100.00;93114.72;2106529;28;20043;-87
2021/06/23 00:22:56;;;;;;;3.67;2.00;;;;;;;14.53;100.00;93119.47;2106647;28;20023;-85
2021/06/23 00:23:57;;;;;;;2.22;1.33;;;;;;;14.54;100.00;93117.53;2115034;28;20035;-82
2021/06/23 00:24:57;;;;;;;2.65;1.35;;;;;;;14.54;100.00;93122.91;2106371;28;20048;-83
2021/06/23 00:25:58;;;;;;;3.65;1.63;;;;;;;14.55;100.00;93125.16;2098392;28;20107;-83
2021/06/23 00:26:59;;;;;;;2.97;1.30;;;;;;;14.52;100.00;93123.34;2098014;28;20052;-85
2021/06/23 00:28:00;;;;;;;7.13;1.40;;;;;;;14.52;100.00;93120.66;2098162;28;20020;-84
2021/06/23 00:29:02;;;;;;;1.75;1.65;;;;;;;14.46;100.00;93125.06;2106342;28;20046;-84
2021/06/23 00:30:05;;;;;;;2.20;2.00;;;;;;;14.45;100.00;93128.97;2114910;28;20034;-83
2021/06/23 00:31:05;;;;;;;5.88;1.90;;;;;;;14.45;100.00;93130.91;2107159;28;20488;-87
2021/06/23 00:32:14;;;;;;;3.90;1.85;;;;;;;14.47;100.00;93133.88;2114562;28;20038;-87
2021/06/23 00:33:20;;;;;;;2.28;1.48;;;;;;;14.47;100.00;93131.94;2107514;28;20027;-85
2021/06/23 00:34:23;;;;;;;1.70;1.60;;;;;;;14.45;100.00;93133.59;2094839;28;20028;-86
2021/06/23 00:35:24;;;;;;;2.25;1.67;;;;;;;14.49;100.00;93135.00;2093532;28;20043;-82
2021/06/23 00:36:24;;;;;;;4.38;1.65;;;;;;;14.41;100.00;93136.41;2090007;28;20059;-84
2021/06/23 00:37:25;;;;;;;1.48;1.30;;;;;;;14.49;100.00;93136.94;2090541;28;20021;-82
2021/06/23 00:38:26;;;;;;;1.40;1.30;;;;;;;14.50;100.00;93128.41;2106405;28;20034;-83
2021/06/23 00:39:26;;;;;;;1.40;1.30;;;;;;;14.48;100.00;93130.78;2106529;28;20020;-83
2021/06/23 00:40:27;;;;;;;1.20;1.10;;;;;;;14.42;100.00;93129.09;2097895;28;20051;-81
2021/06/23 00:41:28;;;;;;;1.80;1.30;;;;;;;14.40;100.00;93131.44;2110426;28;20035;-87
2021/06/23 00:42:28;;;;;;;2.30;1.33;;;;;;;14.43;100.00;93133.25;2106357;28;20111;-88
2021/06/23 00:43:29;;;;;;;2.72;1.50;;;;;;;14.42;100.00;93126.41;2106486;28;20565;-83
2021/06/23 00:44:30;;;;;;;2.88;1.70;;;;;;;14.38;100.00;93129.22;2106106;28;20066;-83
2021/06/23 00:45:33;;;;;;;1.50;1.40;;;;;;;14.37;100.00;93130.41;2097338;28;20505;-85
2021/06/23 00:46:33;;;;;;;1.40;1.30;;;;;;;14.39;100.00;93128.00;2098165;28;20123;-85
2021/06/23 00:47:35;;;;;;;4.40;2.03;;;;;;;14.39;100.00;93130.69;2104017;28;20412;-82
2021/06/23 00:48:35;;;;;;;1.60;1.50;;;;;;;14.32;100.00;93131.72;2106465;28;20024;-84
2021/06/23 00:49:37;;;;;;;4.53;1.60;;;;;;;14.38;100.00;93129.22;2098206;28;20032;-82
2021/06/23 00:50:39;;;;;;;1.83;1.40;;;;;;;14.37;100.00;93130.41;2098485;28;20035;-84
2021/06/23 00:51:41;;;;;;;2.67;1.52;;;;;;;14.33;100.00;93135.16;2114902;28;20097;-83
2021/06/23 00:52:43;;;;;;;4.47;1.48;;;;;;;14.32;100.00;93136.34;2097949;28;20032;-85
2021/06/23 00:53:43;;;;;;;1.50;1.40;;;;;;;14.33;100.00;93135.91;2089837;28;20174;-82
2021/06/23 00:54:48;;;;;;;2.05;1.50;;;;;;;14.31;100.00;93132.91;2089831;28;20469;-82
2021/06/23 00:55:53;;;;;;;6.30;1.50;;;;;;;14.31;100.00;93132.91;2090444;28;20508;-85
2021/06/23 00:56:59;;;;;;;3.78;1.60;;;;;;;14.31;100.00;93132.13;2090706;28;20021;-83
2021/06/23 00:58:02;;;;;;;4.63;1.60;;;;;;;14.33;100.00;93125.16;2100769;27;20542;-87
2021/06/23 00:59:04;;;;;;;1.27;1.20;;;;;;;14.32;100.00;93122.91;2114657;28;20391;-85
2021/06/23 01:00:07;;;;;;;1.42;1.30;;;;;;;14.35;100.00;93128.16;2106668;28;20126;-86
2021/06/23 01:01:08;;;;;;;1.95;1.15;;;;;;;14.39;100.00;93130.69;2114474;28;20027;-87
2021/06/23 01:02:11;;;;;;;2.25;1.45;;;;;;;14.29;100.00;93137.22;2106207;28;20020;-84
2021/06/23 01:03:12;;;;;;;2.45;1.38;;;;;;;14.22;100.00;93129.41;2106220;28;20027;-84
2021/06/23 01:04:14;;;;;;;3.78;1.73;;;;;;;14.23;100.00;93123.59;2097780;28;20544;-85
2021/06/23 01:05:16;;;;;;;2.60;1.67;;;;;;;14.24;100.00;93125.09;2095937;28;20099;-86
2021/06/23 01:06:17;;;;;;;1.48;1.38;;;;;;;14.31;100.00;93122.16;2089459;28;20032;-83
2021/06/23 01:07:19;;;;;;;2.38;1.23;;;;;;;14.24;100.00;93135.09;2088263;28;20025;-85
2021/06/23 01:08:20;;;;;;;1.48;1.38;;;;;;;14.23;100.00;93133.59;2097479;28;20024;-85
2021/06/23 01:09:21;;;;;;;1.95;1.75;;;;;;;14.26;100.00;93121.94;2106232;28;20720;-82
2021/06/23 01:10:22;;;;;;;1.92;1.58;;;;;;;14.25;100.00;93123.91;2089686;28;20501;-82
2021/06/23 01:11:23;;;;;;;1.65;1.55;;;;;;;14.21;100.00;93123.28;2102410;28;20112;-84
2021/06/23 01:12:27;;;;;;;2.42;1.60;;;;;;;14.22;100.00;93124.03;2111570;28;20024;-84
2021/06/23 01:13:27;;;;;;;2.17;1.38;;;;;;;14.19;100.00;93116.84;2120008;27;20027;-83
2021/06/23 01:14:33;;;;;;;2.95;1.90;;;;;;;14.20;100.00;93124.47;2116845;27;20031;-82
2021/06/23 01:15:34;;;;;;;1.73;1.63;;;;;;;14.22;100.00;93121.31;2098290;28;20024;-85
2021/06/23 01:16:38;;;;;;;1.77;1.65;;;;;;;14.17;100.00;93121.91;2089334;28;20096;-82
2021/06/23 01:17:39;;;;;;;2.30;1.77;;;;;;;14.16;100.00;93115.03;2093036;28;20102;-85
2021/06/23 01:18:40;;;;;;;1.98;1.60;;;;;;;14.15;100.00;93111.59;2097491;28;20028;-84
2021/06/23 01:19:44;;;;;;;1.70;1.60;;;;;;;14.12;100.00;93115.16;2097531;28;20427;-84
2021/06/23 01:20:46;;;;;;;1.98;1.58;;;;;;;14.13;100.00;93113.22;2106693;28;20059;-87
2021/06/23 01:21:47;;;;;;;2.95;1.65;;;;;;;14.17;100.00;93114.59;2110279;28;20024;-82
2021/06/23 01:22:47;;;;;;;2.33;1.70;;;;;;;14.15;100.00;93106.22;2106160;28;20035;-85
2021/06/23 01:23:49;;;;;;;2.42;1.70;;;;;;;14.13;100.00;93110.53;2089403;28;20052;-85
2021/06/23 01:24:50;;;;;;;2.17;1.77;;;;;;;14.08;100.00;93112.59;2081187;28;20025;-82
2021/06/23 01:25:51;;;;;;;3.28;1.75;;;;;;;14.05;100.00;93113.47;2089625;28;20021;-87
2021/06/23 01:26:52;;;;;;;2.55;1.67;;;;;;;14.06;100.00;93103.47;2097696;28;20090;-84
2021/06/23 01:27:52;;;;;;;2.22;1.63;;;;;;;14.04;100.00;93111.22;2106206;28;20027;-86
2021/06/23 01:28:53;;;;;;;1.95;1.50;;;;;;;13.94;100.00;93105.03;2097573;28;20031;-82
2021/06/23 01:29:54;;;;;;;1.88;1.38;;;;;;;13.99;100.00;93109.84;2097624;28;20024;-83
2021/06/23 01:30:56;;;;;;;3.00;1.60;;;;;;;13.99;100.00;93103.72;2097879;28;20095;-83
2021/06/23 01:31:57;;;;;;;1.52;1.42;;;;;;;13.97;100.00;93104.16;2097903;28;20054;-83
2021/06/23 01:32:59;;;;;;;2.13;1.90;;;;;;;13.94;100.00;93110.41;2097567;28;20028;-82
2021/06/23 01:33:59;;;;;;;5.07;1.70;;;;;;;13.92;100.00;93104.72;2089535;28;20116;-85
2021/06/23 01:35:01;;;;;;;1.50;1.40;;;;;;;13.91;100.00;93110.50;2092604;28;20020;-81
2021/06/23 01:36:05;;;;;;;1.63;1.40;;;;;;;13.91;100.00;93105.88;2097819;28;20030;-84
2021/06/23 01:37:05;;;;;;;1.95;1.50;;;;;;;13.88;100.00;93112.16;2095666;28;20028;-82
2021/06/23 01:38:06;;;;;;;2.13;1.60;;;;;;;13.91;100.00;93108.56;2095872;28;20036;-85
2021/06/23 01:39:07;;;;;;;1.67;1.58;;;;;;;13.94;100.00;93117.72;2097592;28;20074;-82
2021/06/23 01:40:09;;;;;;;1.98;1.70;;;;;;;13.90;100.00;93114.41;2105845;28;20052;-86
2021/06/23 01:41:09;;;;;;;1.40;1.30;;;;;;;13.89;100.00;93119.03;2097609;28;20032;-83
2021/06/23 01:42:10;;;;;;;2.97;1.80;;;;;;;13.92;100.00;93122.78;2105948;28;20043;-85
2021/06/23 01:43:12;;;;;;;1.40;1.30;;;;;;;13.88;100.00;93117.53;2105810;28;20024;-86
2021/06/23 01:44:12;;;;;;;2.17;1.50;;;;;;;13.87;100.00;93110.63;2097408;28;20075;-81
2021/06/23 01:45:14;;;;;;;1.70;1.60;;;;;;;13.90;100.00;93115.13;2105936;28;20042;-82
2021/06/23 01:46:15;;;;;;;1.50;1.40;;;;;;;13.91;100.00;93113.94;2106282;28;20078;-81
2021/06/23 01:47:16;;;;;;;1.70;1.60;;;;;;;13.88;100.00;93109.47;2098296;28;20098;-82
2021/06/23 01:48:22;;;;;;;3.65;1.63;;;;;;;13.84;100.00;93109.59;2090122;28;20422;-82
2021/06/23 01:49:25;;;;;;;1.75;1.65;;;;;;;13.82;100.00;93116.56;2099349;28;20054;-83
2021/06/23 01:50:26;;;;;;;1.67;1.42;;;;;;;13.80;100.00;93113.59;2098427;28;20027;-85
2021/06/23 01:51:26;;;;;;;2.53;1.75;;;;;;;13.83;100.00;93118.09;2090778;28;20473;-84
2021/06/23 01:52:27;;;;;;;3.30;1.52;;;;;;;13.85;100.00;93113.00;2097517;28;20031;-84
2021/06/23 01:53:35;;;;;;;2.17;1.63;;;;;;;13.86;100.00;93120.63;2105796;28;20053;-86
2021/06/23 01:54:40;;;;;;;1.70;1.60;;;;;;;13.91;100.00;93115.88;2105826;28;20123;-87
2021/06/23 01:55:40;;;;;;;4.22;1.70;;;;;;;13.88;100.00;93117.53;2098577;28;20064;-86
2021/06/23 01:56:41;;;;;;;2.10;2.00;;;;;;;13.88;100.00;93116.78;2108485;28;20016;-81
2021/06/23 01:57:42;;;;;;;1.98;1.77;;;;;;;13.88;100.00;93120.22;2105640;28;20059;-83
2021/06/23 01:58:43;;;;;;;1.73;1.63;;;;;;;13.90;100.00;93117.81;2105824;28;20091;-84
2021/06/23 01:59:45;;;;;;;1.80;1.70;;;;;;;13.86;100.00;93114.50;2105925;28;20024;-88
2021/06/23 02:00:52;;;;;;;2.20;2.10;;;;;;;13.91;100.00;93118.56;2097812;28;20424;-85
2021/06/23 02:02:26;;;;;;;1.80;1.70;;;;;;;13.91;100.00;93111.25;2107549;28;20408;-82
2021/06/23 02:04:03;;;;;;;3.85;1.80;;;;;;;13.90;100.00;93117.06;2110353;28;20064;-85
2021/06/23 02:05:07;;;;;;;2.65;1.63;;;;;;;13.90;100.00;93115.13;2104609;28;20031;-87
2021/06/23 02:06:16;;;;;;;4.95;2.35;;;;;;;13.92;100.00;93114.72;2097901;28;20021;-84
2021/06/23 02:07:39;;;;;;;1.92;1.83;;;;;;;13.89;100.00;93121.72;2105782;28;20488;-86
2021/06/23 02:08:45;;;;;;;3.13;1.80;;;;;;;13.91;100.00;93122.00;2097126;28;20052;-84
2021/06/23 02:10:07;;;;;;;1.92;1.83;;;;;;;13.89;100.00;93119.03;2106705;28;20067;-81
2021/06/23 02:11:27;;;;;;;2.03;1.92;;;;;;;13.88;100.00;93114.84;2101515;28;20032;-89
2021/06/23 02:13:00;;;;;;;2.05;1.90;;;;;;;13.91;100.00;93119.31;2109884;28;20114;-87
2021/06/23 02:14:25;;;;;;;4.30;1.98;;;;;;;13.88;100.00;93111.41;2113642;28;20098;-84
2021/06/23 02:15:28;;;;;;;1.52;1.45;;;;;;;13.88;100.00;93114.84;2117656;28;20023;-87
2021/06/23 02:16:29;;;;;;;1.80;1.70;;;;;;;13.86;100.00;93111.81;2106006;28;20089;-83
2021/06/23 02:17:31;;;;;;;2.10;1.90;;;;;;;13.88;100.00;93111.41;2097282;28;20497;-83
2021/06/23 02:18:32;;;;;;;2.42;1.80;;;;;;;13.86;100.00;93107.19;2105868;28;20028;-84
2021/06/23 02:19:44;;;;;;;2.20;1.80;;;;;;;13.79;100.00;93117.47;2099573;28;20040;-84
2021/06/23 02:20:44;;;;;;;2.85;1.90;;;;;;;13.80;100.00;93111.63;2097305;28;20028;-82
2021/06/23 02:21:45;;;;;;;2.10;1.58;;;;;;;13.78;100.00;93119.41;2081027;28;20108;-86
2021/06/23 02:22:46;;;;;;;2.35;1.70;;;;;;;13.77;100.00;93120.56;2105151;28;20024;-81
2021/06/23 02:23:47;;;;;;;2.00;1.60;;;;;;;13.80;100.00;93121.63;2105557;28;20024;-83
2021/06/23 02:24:51;;;;;;;2.85;1.55;;;;;;;13.75;100.00;93117.56;2097376;28;20032;-83
2021/06/23 02:25:52;;;;;;;1.85;1.70;;;;;;;13.72;100.00;93115.00;2105682;28;20075;-83
2021/06/23 02:26:52;;;;;;;3.28;1.95;;;;;;;13.75;100.00;93119.50;2105751;28;20107;-84
2021/06/23 02:27:53;;;;;;;2.95;1.98;;;;;;;13.78;100.00;93118.63;2115587;28;20027;-85
2021/06/23 02:28:54;;;;;;;2.13;1.50;;;;;;;13.79;100.00;93117.47;2114003;28;20415;-84
2021/06/23 02:29:56;;;;;;;1.60;1.50;;;;;;;13.68;100.00;93122.44;2104895;28;20028;-85
2021/06/23 02:30:58;;;;;;;5.93;1.30;;;;;;;13.58;100.00;93116.22;2089138;28;20563;-87
2021/06/23 02:31:59;;;;;;;4.90;1.98;;;;;;;13.63;100.00;93117.63;2097422;28;20017;-82
2021/06/23 02:33:01;;;;;;;3.25;1.55;;;;;;;13.66;100.00;93114.06;2088961;28;20049;-84
2021/06/23 02:34:06;;;;;;;1.75;1.65;;;;;;;13.69;100.00;93113.91;2097400;28;20071;-84
2021/06/23 02:35:08;;;;;;;3.10;2.20;;;;;;;13.72;100.00;93098.88;2105579;28;20738;-83
2021/06/23 02:36:09;;;;;;;2.45;1.60;;;;;;;13.68;100.00;93095.56;2105698;28;20369;-83
2021/06/23 02:37:11;;;;;;;2.25;1.60;;;;;;;13.71;100.00;93100.06;2105805;28;20030;-81
2021/06/23 02:38:12;;;;;;;4.63;1.95;;;;;;;13.71;100.00;93100.81;2105674;28;20043;-81
2021/06/23 02:39:13;;;;;;;2.38;1.80;;;;;;;13.72;100.00;93099.63;2089079;28;20055;-84
2021/06/23 02:40:14;;;;;;;1.92;1.60;;;;;;;13.74;100.00;93093.81;2089079;28;20028;-82
2021/06/23 02:41:16;;;;;;;2.70;1.65;;;;;;;13.73;100.00;93095.75;2105618;28;20028;-85
2021/06/23 02:42:17;;;;;;;2.60;1.90;;;;;;;13.72;100.00;93093.50;2089198;28;20029;-84
2021/06/23 02:43:18;;;;;;;3.17;1.80;;;;;;;13.70;100.00;93099.31;2088820;28;20087;-86
2021/06/23 02:44:19;;;;;;;2.28;1.80;;;;;;;13.70;100.00;93099.31;2105892;28;20056;-83
2021/06/23 02:45:24;;;;;;;2.10;1.90;;;;;;;13.75;100.00;93098.78;2097074;28;20033;-82
2021/06/23 02:46:25;;;;;;;1.80;1.70;;;;;;;13.67;100.00;93102.13;2097779;28;20078;-83
2021/06/23 02:47:26;;;;;;;2.40;1.92;;;;;;;13.62;100.00;93091.94;2097304;28;20368;-82
2021/06/23 02:48:27;;;;;;;2.15;1.70;;;;;;;13.64;100.00;93093.00;2097204;28;20370;-83
2021/06/23 02:49:29;;;;;;;3.60;2.00;;;;;;;13.59;100.00;93094.31;2088974;28;20031;-86
2021/06/23 02:50:32;;;;;;;3.25;1.70;;;;;;;13.63;100.00;93085.38;2089219;28;20025;-84
2021/06/23 02:51:40;;;;;;;3.38;1.92;;;;;;;13.61;100.00;93083.13;2097681;28;20032;-84
2021/06/23 02:52:41;;;;;;;1.80;1.70;;;;;;;13.54;100.00;93094.09;2106263;28;20076;-83
2021/06/23 02:53:43;;;;;;;1.73;1.63;;;;;;;13.53;100.00;93096.06;2106358;28;20028;-82
2021/06/23 02:54:44;;;;;;;2.63;1.88;;;;;;;13.55;100.00;93090.22;2104824;28;20153;-83
2021/06/23 02:55:45;;;;;;;1.95;1.80;;;;;;;13.51;100.00;93093.03;2093603;28;20142;-82
2021/06/23 02:56:47;;;;;;;1.83;1.60;;;;;;;13.49;100.00;93090.03;2113274;28;20114;-87
2021/06/23 02:57:48;;;;;;;3.70;1.50;;;;;;;13.49;100.00;93090.03;2114208;27;20020;-83
2021/06/23 02:58:50;;;;;;;2.53;1.70;;;;;;;13.47;100.00;93089.72;2113950;28;20031;-83
2021/06/23 02:59:52;;;;;;;2.45;1.85;;;;;;;13.48;100.00;93088.56;2105905;28;20103;-85
2021/06/23 03:00:53;;;;;;;1.77;1.58;;;;;;;13.43;100.00;93086.41;2114486;28;20081;-85
2021/06/23 03:01:55;;;;;;;1.80;1.65;;;;;;;13.38;100.00;93078.91;2114184;28;20019;-85
2021/06/23 03:02:56;;;;;;;1.77;1.67;;;;;;;13.32;100.00;93077.97;2101381;28;20024;-81
2021/06/23 03:03:57;;;;;;;4.78;1.60;;;;;;;13.28;100.00;93075.38;2097461;28;20048;-83
2021/06/23 03:04:58;;;;;;;2.45;1.70;;;;;;;13.25;100.00;93068.19;2113854;28;20439;-83
2021/06/23 03:06:01;;;;;;;2.28;1.65;;;;;;;13.25;100.00;93067.44;2122564;28;20106;-83
2021/06/23 03:07:09;;;;;;;1.48;1.38;;;;;;;13.22;100.00;93062.94;2099910;28;20105;-81
2021/06/23 03:08:10;;;;;;;1.35;1.30;;;;;;;13.21;100.00;93058.72;2098284;28;20071;-87
2021/06/23 03:09:11;;;;;;;1.58;1.48;;;;;;;13.20;100.00;93060.66;2089373;28;20032;-82
2021/06/23 03:10:13;;;;;;;1.50;1.40;;;;;;;13.18;100.00;93060.34;2090521;28;20314;-84
2021/06/23 03:11:14;;;;;;;2.15;1.95;;;;;;;13.14;100.00;93061.66;2090929;28;20057;-82
2021/06/23 03:12:16;;;;;;;2.80;1.70;;;;;;;13.20;100.00;93062.59;2100665;28;20035;-84
2021/06/23 03:13:17;;;;;;;1.50;1.40;;;;;;;13.21;100.00;93064.84;2107237;28;20544;-81
2021/06/23 03:14:17;;;;;;;1.60;1.50;;;;;;;13.16;100.00;93059.28;2115213;28;20019;-84
2021/06/23 03:15:18;;;;;;;1.42;1.33;;;;;;;13.14;100.00;93069.72;2115616;28;20019;-83
2021/06/23 03:16:19;;;;;;;1.50;1.40;;;;;;;13.10;100.00;93067.13;2115433;28;20593;-82
2021/06/23 03:17:20;;;;;;;2.30;1.67;;;;;;;13.03;100.00;93072.72;2102826;28;20031;-85
2021/06/23 03:18:21;;;;;;;1.60;1.50;;;;;;;13.01;100.00;93075.84;2098415;28;20028;-82
2021/06/23 03:19:21;;;;;;;1.60;1.50;;;;;;;12.97;100.00;93083.25;2107235;28;20028;-83
2021/06/23 03:20:22;;;;;;;2.28;1.60;;;;;;;12.93;100.00;93079.94;2124047;27;20045;-85
2021/06/23 03:21:23;;;;;;;2.38;1.23;;;;;;;12.93;100.00;93084.53;2115119;28;20028;-83
2021/06/23 03:22:24;;;;;;;2.08;1.48;;;;;;;12.88;100.00;93080.47;2098676;28;20033;-84
2021/06/23 03:23:25;;;;;;;2.80;1.35;;;;;;;12.87;100.00;93084.34;2107109;28;20090;-83
2021/06/23 03:24:25;;;;;;;4.88;1.30;;;;;;;12.85;100.00;93081.31;2124059;27;20019;-85
2021/06/23 03:25:26;;;;;;;1.75;1.30;;;;;;;12.82;100.00;93077.59;2118533;27;20015;-85
2021/06/23 03:26:28;;;;;;;1.40;1.30;;;;;;;12.78;100.00;93074.25;2098483;28;20125;-90
2021/06/23 03:27:29;;;;;;;1.27;1.25;;;;;;;12.74;100.00;93076.31;2090582;28;20513;-86
2021/06/23 03:28:30;;;;;;;1.55;1.30;;;;;;;12.73;100.00;93076.72;2082333;28;20021;-87
2021/06/23 03:29:33;;;;;;;1.60;1.50;;;;;;;12.67;100.00;93081.88;2098868;28;20095;-87
2021/06/23 03:30:34;;;;;;;1.52;1.42;;;;;;;12.65;100.00;93086.94;2098797;28;20028;-88
2021/06/23 03:31:35;;;;;;;1.63;1.52;;;;;;;12.61;100.00;93086.28;2107402;28;20048;-87
2021/06/23 03:32:36;;;;;;;1.40;1.30;;;;;;;12.57;100.00;93091.00;2106901;28;20366;-87
2021/06/23 03:33:40;;;;;;;1.40;1.30;;;;;;;12.51;100.00;93092.69;2098769;28;20047;-87
2021/06/23 03:34:41;;;;;;;2.80;1.50;;;;;;;12.48;100.00;93094.31;2107083;28;20055;-87
2021/06/23 03:35:42;;;;;;;1.48;1.38;;;;;;;12.49;100.00;93093.13;2102900;28;20040;-88
2021/06/23 03:36:42;;;;;;;1.58;1.48;;;;;;;12.50;100.00;93093.88;2092887;28;20031;-85
2021/06/23 03:37:43;;;;;;;1.30;1.30;;;;;;;12.49;100.00;93103.09;2090645;28;20032;-87
2021/06/23 03:38:44;;;;;;;1.60;1.50;;;;;;;12.45;100.00;93108.56;2090403;28;20112;-87
2021/06/23 03:39:45;;;;;;;1.83;1.38;;;;;;;12.50;100.00;93099.97;2098864;28;20564;-86
2021/06/23 03:40:45;;;;;;;1.58;1.48;;;;;;;12.50;100.00;93107.28;2089637;28;20048;-87
2021/06/23 03:41:46;;;;;;;1.30;1.30;;;;;;;12.48;100.00;93107.72;2098668;28;20045;-86
2021/06/23 03:42:48;;;;;;;3.90;1.35;;;;;;;12.45;100.00;93108.56;2107107;28;20024;-86
2021/06/23 03:43:48;;;;;;;1.63;1.52;;;;;;;12.44;100.00;93115.09;2107184;28;20045;-86
2021/06/23 03:44:49;;;;;;;1.75;1.33;;;;;;;12.41;100.00;93110.59;2107027;28;20429;-86
2021/06/23 03:45:50;;;;;;;2.08;1.35;;;;;;;12.38;100.00;93111.47;2106999;28;20031;-87
2021/06/23 03:46:52;;;;;;;2.22;1.30;;;;;;;12.34;100.00;93116.19;2115489;28;20476;-86
2021/06/23 03:47:53;;;;;;;1.30;1.20;;;;;;;12.28;100.00;93118.63;2107287;28;20023;-86
2021/06/23 03:48:56;;;;;;;1.67;1.58;;;;;;;12.27;100.00;93117.13;2115666;28;20094;-87
2021/06/23 03:49:56;;;;;;;1.50;1.40;;;;;;;12.28;100.00;93123.22;2124099;27;20465;-87
2021/06/23 03:50:57;;;;;;;2.10;1.30;;;;;;;12.24;100.00;93135.97;2115513;28;20023;-86
2021/06/23 03:51:59;;;;;;;3.33;1.58;;;;;;;12.20;100.00;93129.94;2106998;28;20031;-87
2021/06/23 03:53:00;;;;;;;1.83;1.33;;;;;;;12.21;100.00;93134.16;2107206;28;20043;-86
2021/06/23 03:54:02;;;;;;;1.20;1.20;;;;;;;12.16;100.00;93143.47;2107363;28;20496;-87
2021/06/23 03:55:05;;;;;;;1.50;1.40;;;;;;;12.14;100.00;93145.81;2107191;28;20099;-87
2021/06/23 03:56:05;;;;;;;4.57;1.50;;;;;;;12.14;100.00;93145.06;2107440;28;20043;-88
2021/06/23 03:57:06;;;;;;;2.55;1.40;;;;;;;12.17;100.00;93146.91;2106945;28;20027;-87
2021/06/23 03:58:07;;;;;;;1.90;1.70;;;;;;;12.16;100.00;93148.06;2106942;28;20063;-87
2021/06/23 03:59:08;;;;;;;2.88;1.40;;;;;;;12.24;100.00;93144.00;2107182;28;20027;-87
2021/06/23 04:00:09;;;;;;;5.00;1.92;;;;;;;12.23;100.00;93153.97;2106990;28;20028;-86
2021/06/23 04:01:11;;;;;;;1.50;1.38;;;;;;;12.18;100.00;93151.06;2098759;28;20123;-87
2021/06/23 04:02:11;;;;;;;6.25;1.60;;;;;;;12.22;100.00;93149.81;2098933;28;20390;-88
2021/06/23 04:03:12;;;;;;;1.92;1.60;;;;;;;12.19;100.00;93149.91;2107163;28;20023;-86
2021/06/23 04:04:13;;;;;;;1.60;1.50;;;;;;;12.18;100.00;93167.16;2098707;28;20024;-87
2021/06/23 04:05:13;;;;;;;1.67;1.58;;;;;;;12.19;100.00;93160.63;2106904;28;20032;-87
2021/06/23 04:06:14;;;;;;;5.18;1.75;;;;;;;12.17;100.00;93162.97;2099265;28;20028;-86
2021/06/23 04:07:15;;;;;;;1.70;1.60;;;;;;;12.18;100.00;93167.16;2097772;28;20145;-87
2021/06/23 04:08:16;;;;;;;2.28;1.52;;;;;;;12.16;100.00;93172.16;2098570;28;20020;-85
2021/06/23 04:09:17;;;;;;;2.15;1.55;;;;;;;12.13;100.00;93168.44;2098639;28;20043;-87
2021/06/23 04:10:18;;;;;;;2.97;1.50;;;;;;;12.07;100.00;93178.91;2107089;28;20020;-87
2021/06/23 04:11:19;;;;;;;1.48;1.33;;;;;;;12.09;100.00;93176.56;2107196;28;20024;-88
2021/06/23 04:12:19;;;;;;;2.03;1.50;;;;;;;12.06;100.00;93180.06;2115332;28;20522;-88
2021/06/23 04:13:20;;;;;;;4.47;1.70;;;;;;;12.16;100.00;93177.53;2103033;28;20028;-87
2021/06/23 04:14:21;;;;;;;1.70;1.60;;;;;;;12.19;100.00;93179.38;2112503;28;20684;-88
2021/06/23 04:15:22;;;;;;;2.17;1.60;;;;;;;12.18;100.00;93180.56;2090574;28;20025;-88
2021/06/23 04:16:23;;;;;;;2.28;1.55;;;;;;;12.17;100.00;93181.75;2099281;28;20032;-89
2021/06/23 04:17:23;;;;;;;3.00;2.08;;;;;;;12.18;100.00;93183.97;2106989;28;20024;-88
2021/06/23 04:18:24;;;;;;;2.10;1.65;;;;;;;12.26;100.00;93179.19;2115434;28;20065;-89
2021/06/23 04:19:25;;;;;;;1.70;1.60;;;;;;;12.23;100.00;93182.72;2123258;27;20058;-87
2021/06/23 04:20:26;;;;;;;3.85;1.70;;;;;;;12.35;100.00;93182.00;2098449;28;20027;-87
2021/06/23 04:21:26;;;;;;;3.83;1.90;;;;;;;12.39;100.00;93187.28;2106764;28;20029;-88
2021/06/23 04:22:27;;;;;;;2.10;1.90;;;;;;;12.39;100.00;93181.91;2098443;28;20043;-88
2021/06/23 04:23:28;;;;;;;2.22;1.60;;;;;;;12.43;100.00;93185.25;2098458;28;20024;-87
2021/06/23 04:24:29;;;;;;;1.75;1.65;;;;;;;12.43;100.00;93183.31;2092777;28;20029;-88
2021/06/23 04:25:29;;;;;;;2.47;2.10;;;;;;;12.48;100.00;93180.09;2098455;28;20020;-87
2021/06/23 04:26:30;;;;;;;2.78;2.58;;;;;;;12.66;100.00;93184.97;2098373;28;20024;-89
2021/06/23 04:27:31;;;;;;;4.03;2.88;;;;;;;12.65;100.00;93183.47;2098717;28;20075;-87
2021/06/23 04:28:32;;;;;;;5.65;2.42;;;;;;;12.69;100.00;93186.06;2098623;28;20086;-87
2021/06/23 04:29:32;;;;;;;21.70;2.60;;;;;;;12.75;100.00;93187.00;2107147;28;20031;-87
2021/06/23 04:30:33;;;;;;;10.20;2.25;;;;;;;12.77;100.00;93182.72;2104953;28;20024;-87
2021/06/23 04:31:34;;;;;;;4.68;2.20;;;;;;;12.75;100.00;93187.75;2092449;28;20108;-87
2021/06/23 04:32:35;;;;;;;8.85;2.22;;;;;;;12.83;100.00;93191.00;2106929;28;20400;-88
2021/06/23 04:33:36;;;;;;;9.35;2.47;;;;;;;12.91;100.00;93181.56;2107021;28;20027;-87
2021/06/23 04:34:36;;;;;;;14.43;2.53;;;;;;;12.93;100.00;93181.13;2106745;28;20031;-87
2021/06/23 04:35:37;;;;;;;4.05;2.40;;;;;;;12.95;100.00;93184.91;2104333;28;20021;-87
2021/06/23 04:36:38;;;;;;;5.50;2.50;;;;;;;12.94;100.00;93194.09;2095666;28;20021;-86
2021/06/23 04:37:41;;;;;;;6.82;2.50;;;;;;;12.97;100.00;93184.47;2090242;28;20032;-86
2021/06/23 04:38:41;;;;;;;10.80;2.05;;;;;;;13.00;100.00;93189.72;2090601;28;20406;-87
2021/06/23 04:39:42;;;;;;;10.27;2.40;;;;;;;13.05;100.00;93191.13;2090139;28;20056;-87
2021/06/23 04:40:43;;;;;;;14.13;2.65;;;;;;;13.01;100.00;93190.47;2081695;28;20029;-86
2021/06/23 04:41:44;;;;;;;3.80;2.40;;;;;;;13.05;100.00;93183.06;2081829;28;20017;-86
2021/06/23 04:42:45;;;;;;;2.47;2.38;;;;;;;13.09;100.00;93184.47;2089871;28;20127;-87
2021/06/23 04:43:46;;;;;;;18.52;2.40;;;;;;;13.16;100.00;93185.41;2090034;28;20039;-86
2021/06/23 04:44:46;;;;;;;19.02;2.30;;;;;;;13.14;100.00;93182.44;2097227;28;20039;-87
2021/06/23 04:45:47;;;;;;;16.98;2.40;;;;;;;13.20;100.00;93191.44;2106580;28;20016;-87
2021/06/23 04:46:48;;;;;;;14.70;2.50;;;;;;;13.20;100.00;93186.81;2114858;28;20423;-87
2021/06/23 04:47:49;;;;;;;16.55;2.28;;;;;;;13.25;100.00;93194.34;2098046;28;20538;-87
2021/06/23 04:48:49;;;;;;;18.90;2.38;;;;;;;13.31;100.00;93195.34;2089742;28;20021;-87